sensor_id;sensor_type;location;lat;lon;timestamp;P1;durP1;ratioP1;P2;durP2;ratioP2
13339;SDS011;6739;47.398;8.774;2022-09-30T00:01:53;5.03;;;4.63;;
13339;SDS011;6739;47.398;8.774;2022-09-30T00:04:21;5.03;;;4.60;;
13339;SDS011;6739;47.398;8.774;2022-09-30T00:06:51;4.40;;;4.10;;
13339;SDS011;6739;47.398;8.774;2022-09-30T00:09:19;4.53;;;4.13;;
13339;SDS011;6739;47.398;8.774;2022-09-30T00:11:46;4.40;;;4.10;;
13339;SDS011;6739;47.398;8.774;2022-09-30T00:14:15;3.87;;;3.50;;
13339;SDS011;6739;47.398;8.774;2022-09-30T00:16:43;5.33;;;4.93;;
13339;SDS011;6739;47.398;8.774;2022-09-30T00:19:10;4.60;;;4.30;;
13339;SDS011;6739;47.398;8.774;2022-09-30T00:21:38;4.73;;;4.03;;
13339;SDS011;6739;47.398;8.774;2022-09-30T00:24:07;4.10;;;3.80;;
13339;SDS011;6739;47.398;8.774;2022-09-30T00:26:34;2.93;;;2.73;;
13339;SDS011;6739;47.398;8.774;2022-09-30T00:29:02;3.50;;;3.20;;
13339;SDS011;6739;47.398;8.774;2022-09-30T00:31:30;2.97;;;2.77;;
13339;SDS011;6739;47.398;8.774;2022-09-30T00:33:58;3.10;;;2.90;;
13339;SDS011;6739;47.398;8.774;2022-09-30T00:36:32;3.10;;;2.90;;
13339;SDS011;6739;47.398;8.774;2022-09-30T00:38:59;3.17;;;2.90;;
13339;SDS011;6739;47.398;8.774;2022-09-30T00:41:28;2.97;;;2.77;;
13339;SDS011;6739;47.398;8.774;2022-09-30T00:43:56;3.10;;;2.90;;
13339;SDS011;6739;47.398;8.774;2022-09-30T00:46:27;2.53;;;2.40;;
13339;SDS011;6739;47.398;8.774;2022-09-30T00:48:56;2.70;;;2.50;;
13339;SDS011;6739;47.398;8.774;2022-09-30T00:51:26;3.03;;;2.83;;
13339;SDS011;6739;47.398;8.774;2022-09-30T00:53:56;3.13;;;2.83;;
13339;SDS011;6739;47.398;8.774;2022-09-30T00:56:24;3.70;;;2.60;;
13339;SDS011;6739;47.398;8.774;2022-09-30T00:58:54;3.30;;;3.10;;
13339;SDS011;6739;47.398;8.774;2022-09-30T01:01:22;2.87;;;2.47;;
13339;SDS011;6739;47.398;8.774;2022-09-30T01:03:50;3.13;;;2.63;;
13339;SDS011;6739;47.398;8.774;2022-09-30T01:06:21;3.13;;;2.93;;
13339;SDS011;6739;47.398;8.774;2022-09-30T01:08:49;2.93;;;2.73;;
13339;SDS011;6739;47.398;8.774;2022-09-30T01:11:17;2.83;;;2.63;;
13339;SDS011;6739;47.398;8.774;2022-09-30T01:13:45;3.60;;;2.87;;
13339;SDS011;6739;47.398;8.774;2022-09-30T01:16:25;4.20;;;2.73;;
13339;SDS011;6739;47.398;8.774;2022-09-30T01:18:59;2.80;;;2.60;;
13339;SDS011;6739;47.398;8.774;2022-09-30T01:21:34;2.97;;;2.77;;
13339;SDS011;6739;47.398;8.774;2022-09-30T01:24:11;3.13;;;2.77;;
13339;SDS011;6739;47.398;8.774;2022-09-30T01:32:26;2.70;;;2.50;;
13339;SDS011;6739;47.398;8.774;2022-09-30T01:34:58;2.33;;;2.20;;
13339;SDS011;6739;47.398;8.774;2022-09-30T01:37:32;2.50;;;2.30;;
13339;SDS011;6739;47.398;8.774;2022-09-30T01:40:04;3.07;;;2.77;;
13339;SDS011;6739;47.398;8.774;2022-09-30T01:42:35;4.70;;;2.63;;
13339;SDS011;6739;47.398;8.774;2022-09-30T01:45:06;3.40;;;3.10;;
13339;SDS011;6739;47.398;8.774;2022-09-30T01:47:39;3.03;;;2.83;;
13339;SDS011;6739;47.398;8.774;2022-09-30T01:50:10;3.47;;;3.27;;
13339;SDS011;6739;47.398;8.774;2022-09-30T01:52:41;3.60;;;3.30;;
13339;SDS011;6739;47.398;8.774;2022-09-30T01:55:12;3.70;;;3.50;;
13339;SDS011;6739;47.398;8.774;2022-09-30T01:57:42;4.20;;;3.90;;
13339;SDS011;6739;47.398;8.774;2022-09-30T02:00:12;4.90;;;4.60;;
13339;SDS011;6739;47.398;8.774;2022-09-30T02:02:43;4.47;;;4.07;;
13339;SDS011;6739;47.398;8.774;2022-09-30T02:05:15;4.30;;;4.00;;
13339;SDS011;6739;47.398;8.774;2022-09-30T02:07:44;4.00;;;3.70;;
13339;SDS011;6739;47.398;8.774;2022-09-30T02:10:14;4.33;;;4.03;;
13339;SDS011;6739;47.398;8.774;2022-09-30T02:12:44;4.33;;;4.03;;
13339;SDS011;6739;47.398;8.774;2022-09-30T02:15:14;4.20;;;3.90;;
13339;SDS011;6739;47.398;8.774;2022-09-30T02:17:44;3.33;;;3.13;;
13339;SDS011;6739;47.398;8.774;2022-09-30T02:20:14;4.07;;;3.77;;
13339;SDS011;6739;47.398;8.774;2022-09-30T02:22:44;4.07;;;3.80;;
13339;SDS011;6739;47.398;8.774;2022-09-30T02:25:14;3.70;;;3.50;;
13339;SDS011;6739;47.398;8.774;2022-09-30T02:27:45;3.40;;;3.20;;
13339;SDS011;6739;47.398;8.774;2022-09-30T02:30:14;3.50;;;3.30;;
13339;SDS011;6739;47.398;8.774;2022-09-30T02:32:43;4.00;;;3.70;;
13339;SDS011;6739;47.398;8.774;2022-09-30T02:35:18;3.30;;;3.10;;
13339;SDS011;6739;47.398;8.774;2022-09-30T02:37:47;3.80;;;3.50;;
13339;SDS011;6739;47.398;8.774;2022-09-30T02:40:18;3.57;;;3.27;;
13339;SDS011;6739;47.398;8.774;2022-09-30T02:42:48;3.57;;;3.37;;
13339;SDS011;6739;47.398;8.774;2022-09-30T02:45:18;3.90;;;3.60;;
13339;SDS011;6739;47.398;8.774;2022-09-30T02:47:54;4.30;;;4.00;;
13339;SDS011;6739;47.398;8.774;2022-09-30T02:50:25;4.03;;;3.73;;
13339;SDS011;6739;47.398;8.774;2022-09-30T02:52:56;4.10;;;3.80;;
13339;SDS011;6739;47.398;8.774;2022-09-30T02:55:27;3.77;;;3.47;;
13339;SDS011;6739;47.398;8.774;2022-09-30T02:57:58;3.60;;;3.30;;
13339;SDS011;6739;47.398;8.774;2022-09-30T03:00:28;4.50;;;4.20;;
13339;SDS011;6739;47.398;8.774;2022-09-30T03:02:56;4.20;;;3.90;;
13339;SDS011;6739;47.398;8.774;2022-09-30T03:05:27;4.17;;;3.87;;
13339;SDS011;6739;47.398;8.774;2022-09-30T03:07:55;4.63;;;3.60;;
13339;SDS011;6739;47.398;8.774;2022-09-30T03:10:22;4.00;;;3.70;;
13339;SDS011;6739;47.398;8.774;2022-09-30T03:12:54;4.20;;;3.90;;
13339;SDS011;6739;47.398;8.774;2022-09-30T03:15:28;4.60;;;4.20;;
13339;SDS011;6739;47.398;8.774;2022-09-30T03:18:06;4.73;;;4.30;;
13339;SDS011;6739;47.398;8.774;2022-09-30T03:20:45;6.03;;;4.70;;
13339;SDS011;6739;47.398;8.774;2022-09-30T03:23:36;4.30;;;4.00;;
13339;SDS011;6739;47.398;8.774;2022-09-30T03:26:09;5.00;;;4.60;;
13339;SDS011;6739;47.398;8.774;2022-09-30T03:28:43;4.63;;;4.23;;
13339;SDS011;6739;47.398;8.774;2022-09-30T03:31:14;5.50;;;5.10;;
13339;SDS011;6739;47.398;8.774;2022-09-30T03:33:46;5.37;;;4.97;;
13339;SDS011;6739;47.398;8.774;2022-09-30T03:36:18;5.90;;;5.33;;
13339;SDS011;6739;47.398;8.774;2022-09-30T03:38:49;5.40;;;5.00;;
13339;SDS011;6739;47.398;8.774;2022-09-30T03:41:20;6.13;;;5.47;;
13339;SDS011;6739;47.398;8.774;2022-09-30T03:43:50;6.20;;;5.70;;
13339;SDS011;6739;47.398;8.774;2022-09-30T03:46:22;6.60;;;6.00;;
13339;SDS011;6739;47.398;8.774;2022-09-30T03:48:51;7.27;;;6.67;;
13339;SDS011;6739;47.398;8.774;2022-09-30T03:51:21;7.17;;;6.50;;
13339;SDS011;6739;47.398;8.774;2022-09-30T03:53:50;7.80;;;7.13;;
13339;SDS011;6739;47.398;8.774;2022-09-30T03:56:25;7.30;;;6.67;;
13339;SDS011;6739;47.398;8.774;2022-09-30T03:58:55;7.10;;;6.50;;
13339;SDS011;6739;47.398;8.774;2022-09-30T04:01:23;6.83;;;6.33;;
13339;SDS011;6739;47.398;8.774;2022-09-30T04:03:51;7.50;;;6.90;;
13339;SDS011;6739;47.398;8.774;2022-09-30T04:06:20;6.60;;;6.10;;
13339;SDS011;6739;47.398;8.774;2022-09-30T04:08:49;7.37;;;6.77;;
13339;SDS011;6739;47.398;8.774;2022-09-30T04:11:18;7.60;;;7.00;;
13339;SDS011;6739;47.398;8.774;2022-09-30T04:13:45;8.53;;;7.83;;
13339;SDS011;6739;47.398;8.774;2022-09-30T04:16:13;7.30;;;6.70;;
13339;SDS011;6739;47.398;8.774;2022-09-30T04:18:41;8.30;;;7.60;;
13339;SDS011;6739;47.398;8.774;2022-09-30T04:21:09;8.17;;;7.47;;
13339;SDS011;6739;47.398;8.774;2022-09-30T04:23:38;8.50;;;7.77;;
13339;SDS011;6739;47.398;8.774;2022-09-30T04:26:09;7.67;;;6.97;;
13339;SDS011;6739;47.398;8.774;2022-09-30T04:28:37;7.70;;;7.10;;
13339;SDS011;6739;47.398;8.774;2022-09-30T04:31:04;7.93;;;7.33;;
13339;SDS011;6739;47.398;8.774;2022-09-30T04:33:32;7.93;;;7.23;;
13339;SDS011;6739;47.398;8.774;2022-09-30T04:36:00;8.27;;;7.67;;
13339;SDS011;6739;47.398;8.774;2022-09-30T04:38:27;7.93;;;7.33;;
13339;SDS011;6739;47.398;8.774;2022-09-30T04:40:55;7.77;;;7.17;;
13339;SDS011;6739;47.398;8.774;2022-09-30T04:43:24;7.77;;;7.10;;
13339;SDS011;6739;47.398;8.774;2022-09-30T04:45:52;7.73;;;7.03;;
13339;SDS011;6739;47.398;8.774;2022-09-30T04:48:20;7.80;;;7.20;;
13339;SDS011;6739;47.398;8.774;2022-09-30T04:50:47;7.40;;;6.80;;
13339;SDS011;6739;47.398;8.774;2022-09-30T04:53:15;7.93;;;7.27;;
13339;SDS011;6739;47.398;8.774;2022-09-30T04:55:43;8.20;;;7.60;;
13339;SDS011;6739;47.398;8.774;2022-09-30T04:58:11;7.97;;;7.37;;
13339;SDS011;6739;47.398;8.774;2022-09-30T05:00:40;8.77;;;8.07;;
13339;SDS011;6739;47.398;8.774;2022-09-30T05:03:08;9.07;;;8.27;;
13339;SDS011;6739;47.398;8.774;2022-09-30T05:05:35;8.97;;;8.17;;
13339;SDS011;6739;47.398;8.774;2022-09-30T05:08:03;9.03;;;8.23;;
13339;SDS011;6739;47.398;8.774;2022-09-30T05:10:31;8.80;;;8.10;;
13339;SDS011;6739;47.398;8.774;2022-09-30T05:12:58;9.00;;;8.27;;
13339;SDS011;6739;47.398;8.774;2022-09-30T05:15:26;8.70;;;8.00;;
13339;SDS011;6739;47.398;8.774;2022-09-30T05:17:55;8.87;;;8.07;;
13339;SDS011;6739;47.398;8.774;2022-09-30T05:20:23;10.03;;;9.13;;
13339;SDS011;6739;47.398;8.774;2022-09-30T05:22:52;9.87;;;9.03;;
13339;SDS011;6739;47.398;8.774;2022-09-30T05:25:20;10.57;;;9.63;;
13339;SDS011;6739;47.398;8.774;2022-09-30T05:27:48;10.27;;;9.27;;
13339;SDS011;6739;47.398;8.774;2022-09-30T05:30:16;9.80;;;9.00;;
13339;SDS011;6739;47.398;8.774;2022-09-30T05:32:44;9.97;;;9.17;;
13339;SDS011;6739;47.398;8.774;2022-09-30T05:35:13;10.07;;;9.03;;
13339;SDS011;6739;47.398;8.774;2022-09-30T05:37:40;8.63;;;8.03;;
13339;SDS011;6739;47.398;8.774;2022-09-30T05:40:08;9.50;;;8.73;;
13339;SDS011;6739;47.398;8.774;2022-09-30T05:42:35;8.90;;;8.20;;
13339;SDS011;6739;47.398;8.774;2022-09-30T05:45:03;8.47;;;7.77;;
13339;SDS011;6739;47.398;8.774;2022-09-30T05:47:31;8.87;;;8.07;;
13339;SDS011;6739;47.398;8.774;2022-09-30T05:49:58;8.07;;;7.47;;
13339;SDS011;6739;47.398;8.774;2022-09-30T05:52:27;8.80;;;8.10;;
13339;SDS011;6739;47.398;8.774;2022-09-30T05:54:55;8.87;;;8.07;;
13339;SDS011;6739;47.398;8.774;2022-09-30T05:57:25;10.67;;;9.53;;
13339;SDS011;6739;47.398;8.774;2022-09-30T05:59:53;9.57;;;8.77;;
13339;SDS011;6739;47.398;8.774;2022-09-30T06:02:20;8.77;;;7.97;;
13339;SDS011;6739;47.398;8.774;2022-09-30T06:04:48;8.60;;;7.90;;
13339;SDS011;6739;47.398;8.774;2022-09-30T06:07:15;8.27;;;7.57;;
13339;SDS011;6739;47.398;8.774;2022-09-30T06:09:44;7.47;;;6.93;;
13339;SDS011;6739;47.398;8.774;2022-09-30T06:12:12;7.67;;;7.07;;
13339;SDS011;6739;47.398;8.774;2022-09-30T06:14:39;7.70;;;7.07;;
13339;SDS011;6739;47.398;8.774;2022-09-30T06:17:07;9.30;;;8.50;;
13339;SDS011;6739;47.398;8.774;2022-09-30T06:19:34;9.87;;;9.07;;
13339;SDS011;6739;47.398;8.774;2022-09-30T06:22:02;7.10;;;6.60;;
13339;SDS011;6739;47.398;8.774;2022-09-30T06:24:29;7.50;;;6.90;;
13339;SDS011;6739;47.398;8.774;2022-09-30T06:26:58;7.20;;;6.70;;
13339;SDS011;6739;47.398;8.774;2022-09-30T06:29:25;7.33;;;6.83;;
13339;SDS011;6739;47.398;8.774;2022-09-30T06:31:53;7.33;;;6.83;;
13339;SDS011;6739;47.398;8.774;2022-09-30T06:34:20;8.03;;;7.43;;
13339;SDS011;6739;47.398;8.774;2022-09-30T06:36:48;8.00;;;7.33;;
13339;SDS011;6739;47.398;8.774;2022-09-30T06:39:16;7.50;;;6.90;;
13339;SDS011;6739;47.398;8.774;2022-09-30T06:41:43;8.70;;;8.00;;
13339;SDS011;6739;47.398;8.774;2022-09-30T06:44:12;7.17;;;6.57;;
13339;SDS011;6739;47.398;8.774;2022-09-30T06:46:39;7.63;;;7.03;;
13339;SDS011;6739;47.398;8.774;2022-09-30T06:49:07;7.03;;;6.53;;
13339;SDS011;6739;47.398;8.774;2022-09-30T06:51:35;8.07;;;7.37;;
13339;SDS011;6739;47.398;8.774;2022-09-30T06:54:02;7.23;;;6.63;;
13339;SDS011;6739;47.398;8.774;2022-09-30T06:56:29;7.03;;;6.53;;
13339;SDS011;6739;47.398;8.774;2022-09-30T06:58:57;7.30;;;6.70;;
13339;SDS011;6739;47.398;8.774;2022-09-30T07:01:27;6.97;;;6.47;;
13339;SDS011;6739;47.398;8.774;2022-09-30T07:03:55;8.00;;;7.30;;
13339;SDS011;6739;47.398;8.774;2022-09-30T07:06:23;7.17;;;6.67;;
13339;SDS011;6739;47.398;8.774;2022-09-30T07:08:51;7.67;;;6.97;;
13339;SDS011;6739;47.398;8.774;2022-09-30T07:11:21;7.57;;;6.97;;
13339;SDS011;6739;47.398;8.774;2022-09-30T07:13:49;7.07;;;6.57;;
13339;SDS011;6739;47.398;8.774;2022-09-30T07:16:17;7.07;;;6.47;;
13339;SDS011;6739;47.398;8.774;2022-09-30T07:18:46;7.57;;;6.97;;
13339;SDS011;6739;47.398;8.774;2022-09-30T07:21:14;7.70;;;7.10;;
13339;SDS011;6739;47.398;8.774;2022-09-30T07:23:41;7.60;;;7.00;;
13339;SDS011;6739;47.398;8.774;2022-09-30T07:26:11;7.50;;;6.90;;
13339;SDS011;6739;47.398;8.774;2022-09-30T07:28:39;7.83;;;7.23;;
13339;SDS011;6739;47.398;8.774;2022-09-30T07:31:09;7.67;;;7.07;;
13339;SDS011;6739;47.398;8.774;2022-09-30T07:33:37;7.87;;;7.27;;
13339;SDS011;6739;47.398;8.774;2022-09-30T07:36:06;8.30;;;7.50;;
13339;SDS011;6739;47.398;8.774;2022-09-30T07:38:35;7.27;;;6.77;;
13339;SDS011;6739;47.398;8.774;2022-09-30T07:41:04;7.17;;;6.67;;
13339;SDS011;6739;47.398;8.774;2022-09-30T07:43:32;7.77;;;7.17;;
13339;SDS011;6739;47.398;8.774;2022-09-30T07:46:04;7.60;;;7.00;;
13339;SDS011;6739;47.398;8.774;2022-09-30T07:48:32;7.33;;;6.83;;
13339;SDS011;6739;47.398;8.774;2022-09-30T07:51:11;7.77;;;7.17;;
13339;SDS011;6739;47.398;8.774;2022-09-30T07:53:39;8.10;;;7.50;;
13339;SDS011;6739;47.398;8.774;2022-09-30T07:56:07;7.23;;;6.73;;
13339;SDS011;6739;47.398;8.774;2022-09-30T07:58:35;7.77;;;7.17;;
13339;SDS011;6739;47.398;8.774;2022-09-30T08:01:03;6.87;;;6.37;;
13339;SDS011;6739;47.398;8.774;2022-09-30T08:03:31;7.47;;;6.97;;
13339;SDS011;6739;47.398;8.774;2022-09-30T08:06:02;7.60;;;7.10;;
13339;SDS011;6739;47.398;8.774;2022-09-30T08:08:31;7.10;;;6.60;;
13339;SDS011;6739;47.398;8.774;2022-09-30T08:10:58;8.27;;;7.67;;
13339;SDS011;6739;47.398;8.774;2022-09-30T08:13:26;7.20;;;6.67;;
13339;SDS011;6739;47.398;8.774;2022-09-30T08:15:54;6.97;;;6.30;;
13339;SDS011;6739;47.398;8.774;2022-09-30T08:18:21;7.70;;;7.00;;
13339;SDS011;6739;47.398;8.774;2022-09-30T08:20:49;7.40;;;6.90;;
13339;SDS011;6739;47.398;8.774;2022-09-30T08:23:16;7.23;;;6.70;;
13339;SDS011;6739;47.398;8.774;2022-09-30T08:25:45;7.03;;;6.40;;
13339;SDS011;6739;47.398;8.774;2022-09-30T08:28:13;6.53;;;6.03;;
13339;SDS011;6739;47.398;8.774;2022-09-30T08:30:42;7.47;;;6.97;;
13339;SDS011;6739;47.398;8.774;2022-09-30T08:33:10;7.60;;;7.00;;
13339;SDS011;6739;47.398;8.774;2022-09-30T08:35:37;7.73;;;7.13;;
13339;SDS011;6739;47.398;8.774;2022-09-30T08:38:05;7.30;;;6.60;;
13339;SDS011;6739;47.398;8.774;2022-09-30T08:40:32;6.40;;;5.90;;
13339;SDS011;6739;47.398;8.774;2022-09-30T08:43:18;7.27;;;6.77;;
13339;SDS011;6739;47.398;8.774;2022-09-30T08:45:49;6.90;;;6.40;;
13339;SDS011;6739;47.398;8.774;2022-09-30T08:48:23;6.57;;;5.97;;
13339;SDS011;6739;47.398;8.774;2022-09-30T08:50:59;5.77;;;5.37;;
13339;SDS011;6739;47.398;8.774;2022-09-30T08:53:30;5.97;;;5.57;;
13339;SDS011;6739;47.398;8.774;2022-09-30T08:55:59;6.00;;;5.60;;
13339;SDS011;6739;47.398;8.774;2022-09-30T08:58:29;6.47;;;5.97;;
13339;SDS011;6739;47.398;8.774;2022-09-30T09:00:59;6.20;;;5.80;;
13339;SDS011;6739;47.398;8.774;2022-09-30T09:03:28;6.63;;;6.07;;
13339;SDS011;6739;47.398;8.774;2022-09-30T09:06:00;6.53;;;6.03;;
13339;SDS011;6739;47.398;8.774;2022-09-30T09:08:32;6.97;;;6.47;;
13339;SDS011;6739;47.398;8.774;2022-09-30T09:11:05;6.33;;;5.93;;
13339;SDS011;6739;47.398;8.774;2022-09-30T09:13:38;5.97;;;5.57;;
13339;SDS011;6739;47.398;8.774;2022-09-30T09:16:08;5.63;;;5.23;;
13339;SDS011;6739;47.398;8.774;2022-09-30T09:18:38;6.20;;;5.73;;
13339;SDS011;6739;47.398;8.774;2022-09-30T09:21:13;5.80;;;5.40;;
13339;SDS011;6739;47.398;8.774;2022-09-30T09:23:44;5.90;;;5.50;;
13339;SDS011;6739;47.398;8.774;2022-09-30T09:26:12;5.90;;;5.30;;
13339;SDS011;6739;47.398;8.774;2022-09-30T09:28:43;6.80;;;6.30;;
13339;SDS011;6739;47.398;8.774;2022-09-30T09:31:12;5.80;;;5.40;;
13339;SDS011;6739;47.398;8.774;2022-09-30T09:33:41;6.00;;;5.60;;
13339;SDS011;6739;47.398;8.774;2022-09-30T09:36:13;6.57;;;6.07;;
13339;SDS011;6739;47.398;8.774;2022-09-30T09:38:47;6.27;;;5.87;;
13339;SDS011;6739;47.398;8.774;2022-09-30T09:41:19;7.10;;;6.60;;
13339;SDS011;6739;47.398;8.774;2022-09-30T09:43:55;6.43;;;5.93;;
13339;SDS011;6739;47.398;8.774;2022-09-30T09:46:25;6.57;;;5.50;;
13339;SDS011;6739;47.398;8.774;2022-09-30T09:49:07;6.30;;;5.80;;
13339;SDS011;6739;47.398;8.774;2022-09-30T09:51:42;5.87;;;5.47;;
13339;SDS011;6739;47.398;8.774;2022-09-30T09:54:12;5.93;;;5.53;;
13339;SDS011;6739;47.398;8.774;2022-09-30T09:56:42;5.60;;;5.20;;
13339;SDS011;6739;47.398;8.774;2022-09-30T09:59:11;5.60;;;5.20;;
13339;SDS011;6739;47.398;8.774;2022-09-30T10:01:40;5.60;;;5.10;;
13339;SDS011;6739;47.398;8.774;2022-09-30T10:04:09;5.60;;;5.20;;
13339;SDS011;6739;47.398;8.774;2022-09-30T10:06:46;5.63;;;5.20;;
13339;SDS011;6739;47.398;8.774;2022-09-30T10:09:24;5.17;;;4.73;;
13339;SDS011;6739;47.398;8.774;2022-09-30T10:11:59;4.83;;;4.50;;
13339;SDS011;6739;47.398;8.774;2022-09-30T10:14:47;5.70;;;4.80;;
13339;SDS011;6739;47.398;8.774;2022-09-30T10:17:17;4.90;;;4.50;;
13339;SDS011;6739;47.398;8.774;2022-09-30T10:19:47;4.47;;;4.17;;
13339;SDS011;6739;47.398;8.774;2022-09-30T10:22:17;4.53;;;4.23;;
13339;SDS011;6739;47.398;8.774;2022-09-30T10:24:45;4.30;;;4.00;;
13339;SDS011;6739;47.398;8.774;2022-09-30T10:27:24;3.80;;;3.60;;
13339;SDS011;6739;47.398;8.774;2022-09-30T10:29:54;3.63;;;3.43;;
13339;SDS011;6739;47.398;8.774;2022-09-30T10:32:21;3.53;;;3.27;;
13339;SDS011;6739;47.398;8.774;2022-09-30T10:34:53;3.70;;;3.50;;
13339;SDS011;6739;47.398;8.774;2022-09-30T10:37:22;5.07;;;3.47;;
13339;SDS011;6739;47.398;8.774;2022-09-30T10:39:51;3.83;;;3.53;;
13339;SDS011;6739;47.398;8.774;2022-09-30T10:42:23;3.60;;;3.40;;
13339;SDS011;6739;47.398;8.774;2022-09-30T10:44:52;3.30;;;3.10;;
13339;SDS011;6739;47.398;8.774;2022-09-30T10:47:22;3.80;;;3.60;;
13339;SDS011;6739;47.398;8.774;2022-09-30T10:49:52;3.47;;;3.27;;
13339;SDS011;6739;47.398;8.774;2022-09-30T10:52:22;3.50;;;3.23;;
13339;SDS011;6739;47.398;8.774;2022-09-30T10:54:51;3.50;;;3.20;;
13339;SDS011;6739;47.398;8.774;2022-09-30T10:57:19;3.73;;;3.43;;
13339;SDS011;6739;47.398;8.774;2022-09-30T10:59:47;3.13;;;2.83;;
13339;SDS011;6739;47.398;8.774;2022-09-30T11:02:18;3.83;;;3.10;;
13339;SDS011;6739;47.398;8.774;2022-09-30T11:04:49;2.80;;;2.63;;
13339;SDS011;6739;47.398;8.774;2022-09-30T11:07:20;3.50;;;3.20;;
13339;SDS011;6739;47.398;8.774;2022-09-30T11:09:51;3.50;;;3.30;;
13339;SDS011;6739;47.398;8.774;2022-09-30T11:12:22;3.37;;;3.17;;
13339;SDS011;6739;47.398;8.774;2022-09-30T11:14:54;2.73;;;2.63;;
13339;SDS011;6739;47.398;8.774;2022-09-30T11:17:28;3.30;;;3.10;;
13339;SDS011;6739;47.398;8.774;2022-09-30T11:20:02;2.83;;;2.63;;
13339;SDS011;6739;47.398;8.774;2022-09-30T11:22:38;2.63;;;2.43;;
13339;SDS011;6739;47.398;8.774;2022-09-30T11:25:10;3.07;;;2.87;;
13339;SDS011;6739;47.398;8.774;2022-09-30T11:27:41;3.07;;;2.87;;
13339;SDS011;6739;47.398;8.774;2022-09-30T11:30:11;2.47;;;2.33;;
13339;SDS011;6739;47.398;8.774;2022-09-30T11:32:44;2.70;;;2.50;;
13339;SDS011;6739;47.398;8.774;2022-09-30T11:35:18;2.50;;;2.30;;
13339;SDS011;6739;47.398;8.774;2022-09-30T11:37:56;2.30;;;2.20;;
13339;SDS011;6739;47.398;8.774;2022-09-30T11:40:31;3.10;;;2.00;;
13339;SDS011;6739;47.398;8.774;2022-09-30T11:43:04;2.00;;;1.90;;
13339;SDS011;6739;47.398;8.774;2022-09-30T11:45:37;1.80;;;1.70;;
13339;SDS011;6739;47.398;8.774;2022-09-30T11:48:09;1.90;;;1.80;;
13339;SDS011;6739;47.398;8.774;2022-09-30T11:50:47;1.57;;;1.47;;
13339;SDS011;6739;47.398;8.774;2022-09-30T11:53:19;1.80;;;1.70;;
13339;SDS011;6739;47.398;8.774;2022-09-30T11:55:52;1.67;;;1.57;;
13339;SDS011;6739;47.398;8.774;2022-09-30T11:58:22;1.80;;;1.70;;
13339;SDS011;6739;47.398;8.774;2022-09-30T12:00:51;1.73;;;1.63;;
13339;SDS011;6739;47.398;8.774;2022-09-30T12:03:21;1.57;;;1.47;;
13339;SDS011;6739;47.398;8.774;2022-09-30T12:05:53;1.40;;;1.40;;
13339;SDS011;6739;47.398;8.774;2022-09-30T12:08:23;1.83;;;1.73;;
13339;SDS011;6739;47.398;8.774;2022-09-30T12:10:53;2.27;;;1.60;;
13339;SDS011;6739;47.398;8.774;2022-09-30T12:13:23;1.60;;;1.50;;
13339;SDS011;6739;47.398;8.774;2022-09-30T12:15:52;1.60;;;1.50;;
13339;SDS011;6739;47.398;8.774;2022-09-30T12:18:21;1.30;;;1.30;;
13339;SDS011;6739;47.398;8.774;2022-09-30T12:20:50;1.60;;;1.50;;
13339;SDS011;6739;47.398;8.774;2022-09-30T12:23:21;1.10;;;1.10;;
13339;SDS011;6739;47.398;8.774;2022-09-30T12:25:54;1.43;;;1.20;;
13339;SDS011;6739;47.398;8.774;2022-09-30T12:28:23;1.30;;;1.20;;
13339;SDS011;6739;47.398;8.774;2022-09-30T12:31:14;1.53;;;1.43;;
13339;SDS011;6739;47.398;8.774;2022-09-30T12:33:49;1.07;;;1.07;;
13339;SDS011;6739;47.398;8.774;2022-09-30T12:36:29;1.67;;;1.57;;
13339;SDS011;6739;47.398;8.774;2022-09-30T12:41:54;0.97;;;0.97;;
13339;SDS011;6739;47.398;8.774;2022-09-30T12:44:40;1.00;;;1.00;;
13339;SDS011;6739;47.398;8.774;2022-09-30T12:47:15;1.17;;;1.10;;
13339;SDS011;6739;47.398;8.774;2022-09-30T12:49:45;1.03;;;1.03;;
13339;SDS011;6739;47.398;8.774;2022-09-30T12:52:14;1.00;;;1.00;;
13339;SDS011;6739;47.398;8.774;2022-09-30T12:54:45;1.20;;;1.10;;
13339;SDS011;6739;47.398;8.774;2022-09-30T12:57:16;1.60;;;1.50;;
13339;SDS011;6739;47.398;8.774;2022-09-30T12:59:50;1.13;;;1.13;;
13339;SDS011;6739;47.398;8.774;2022-09-30T13:08:07;1.60;;;1.20;;
13339;SDS011;6739;47.398;8.774;2022-09-30T13:10:42;1.40;;;1.30;;
13339;SDS011;6739;47.398;8.774;2022-09-30T13:13:18;1.37;;;1.27;;
13339;SDS011;6739;47.398;8.774;2022-09-30T13:15:48;1.57;;;1.47;;
13339;SDS011;6739;47.398;8.774;2022-09-30T13:21:17;1.20;;;1.20;;
13339;SDS011;6739;47.398;8.774;2022-09-30T13:23:46;1.63;;;1.53;;
13339;SDS011;6739;47.398;8.774;2022-09-30T13:26:30;1.43;;;1.33;;
13339;SDS011;6739;47.398;8.774;2022-09-30T13:34:24;1.30;;;1.30;;
13339;SDS011;6739;47.398;8.774;2022-09-30T13:36:59;2.00;;;1.90;;
13339;SDS011;6739;47.398;8.774;2022-09-30T13:39:27;1.70;;;1.60;;
13339;SDS011;6739;47.398;8.774;2022-09-30T13:41:59;1.50;;;1.40;;
13339;SDS011;6739;47.398;8.774;2022-09-30T13:44:30;1.70;;;1.60;;
13339;SDS011;6739;47.398;8.774;2022-09-30T13:47:01;2.33;;;1.93;;
13339;SDS011;6739;47.398;8.774;2022-09-30T13:49:37;2.20;;;2.00;;
13339;SDS011;6739;47.398;8.774;2022-09-30T13:52:05;1.63;;;1.53;;
13339;SDS011;6739;47.398;8.774;2022-09-30T13:54:34;2.10;;;2.00;;
13339;SDS011;6739;47.398;8.774;2022-09-30T13:57:13;2.00;;;1.90;;
13339;SDS011;6739;47.398;8.774;2022-09-30T13:59:46;2.20;;;2.00;;
13339;SDS011;6739;47.398;8.774;2022-09-30T14:02:23;1.70;;;1.60;;
13339;SDS011;6739;47.398;8.774;2022-09-30T14:05:00;1.80;;;1.70;;
13339;SDS011;6739;47.398;8.774;2022-09-30T14:07:38;1.80;;;1.70;;
13339;SDS011;6739;47.398;8.774;2022-09-30T14:10:15;1.73;;;1.63;;
13339;SDS011;6739;47.398;8.774;2022-09-30T14:12:52;1.80;;;1.70;;
13339;SDS011;6739;47.398;8.774;2022-09-30T14:15:35;1.70;;;1.60;;
13339;SDS011;6739;47.398;8.774;2022-09-30T14:18:17;1.63;;;1.53;;
13339;SDS011;6739;47.398;8.774;2022-09-30T14:20:55;1.27;;;1.20;;
13339;SDS011;6739;47.398;8.774;2022-09-30T14:23:26;1.07;;;1.07;;
13339;SDS011;6739;47.398;8.774;2022-09-30T14:25:56;1.27;;;1.23;;
13339;SDS011;6739;47.398;8.774;2022-09-30T14:28:30;1.87;;;1.40;;
13339;SDS011;6739;47.398;8.774;2022-09-30T14:30:59;1.20;;;1.20;;
13339;SDS011;6739;47.398;8.774;2022-09-30T14:33:33;1.40;;;1.30;;
13339;SDS011;6739;47.398;8.774;2022-09-30T14:36:09;1.10;;;1.10;;
13339;SDS011;6739;47.398;8.774;2022-09-30T14:38:38;1.30;;;1.20;;
13339;SDS011;6739;47.398;8.774;2022-09-30T14:41:06;1.27;;;1.27;;
13339;SDS011;6739;47.398;8.774;2022-09-30T14:43:34;1.20;;;1.20;;
13339;SDS011;6739;47.398;8.774;2022-09-30T14:46:03;1.20;;;1.20;;
13339;SDS011;6739;47.398;8.774;2022-09-30T14:48:32;1.40;;;1.30;;
13339;SDS011;6739;47.398;8.774;2022-09-30T14:51:02;2.10;;;1.57;;
13339;SDS011;6739;47.398;8.774;2022-09-30T14:53:32;1.43;;;1.33;;
13339;SDS011;6739;47.398;8.774;2022-09-30T14:56:00;1.40;;;1.30;;
13339;SDS011;6739;47.398;8.774;2022-09-30T14:58:29;1.33;;;1.33;;
13339;SDS011;6739;47.398;8.774;2022-09-30T15:01:01;3.23;;;1.40;;
13339;SDS011;6739;47.398;8.774;2022-09-30T15:03:31;1.33;;;1.23;;
13339;SDS011;6739;47.398;8.774;2022-09-30T15:05:59;1.47;;;1.37;;
13339;SDS011;6739;47.398;8.774;2022-09-30T15:08:26;1.63;;;1.53;;
13339;SDS011;6739;47.398;8.774;2022-09-30T15:10:56;1.40;;;1.30;;
13339;SDS011;6739;47.398;8.774;2022-09-30T15:13:24;1.77;;;1.67;;
13339;SDS011;6739;47.398;8.774;2022-09-30T15:15:52;1.60;;;1.50;;
13339;SDS011;6739;47.398;8.774;2022-09-30T15:18:21;1.50;;;1.40;;
13339;SDS011;6739;47.398;8.774;2022-09-30T15:20:49;1.63;;;1.53;;
13339;SDS011;6739;47.398;8.774;2022-09-30T15:23:21;2.60;;;1.47;;
13339;SDS011;6739;47.398;8.774;2022-09-30T15:25:50;1.43;;;1.33;;
13339;SDS011;6739;47.398;8.774;2022-09-30T15:28:19;2.17;;;1.37;;
13339;SDS011;6739;47.398;8.774;2022-09-30T15:30:47;1.27;;;1.27;;
13339;SDS011;6739;47.398;8.774;2022-09-30T15:33:18;2.90;;;1.40;;
13339;SDS011;6739;47.398;8.774;2022-09-30T15:35:46;1.63;;;1.53;;
13339;SDS011;6739;47.398;8.774;2022-09-30T15:38:15;2.53;;;2.33;;
13339;SDS011;6739;47.398;8.774;2022-09-30T15:40:45;1.70;;;1.60;;
13339;SDS011;6739;47.398;8.774;2022-09-30T15:43:15;1.63;;;1.53;;